Date,TemperatureHighF,TemperatureAvgF,TemperatureLowF,DewpointHighF,DewpointAvgF,DewpointLowF,HumidityHigh,HumidityAvg,HumidityLow,PressureMaxIn,PressureMinIn,WindSpeedMaxMPH,WindSpeedAvgMPH,GustSpeedMaxMPH,PrecipitationSumIn
2013-12-1,50.8,42.9,37.1,38.0,34.8,31.0,86,74,57,30.36,30.00,3,0,5,0.00
2013-12-2,52.1,41.8,36.1,41.0,37.4,34.0,94,85,59,30.00,29.88,2,0,5,0.00
2013-12-3,54.1,42.0,34.6,38.0,36.0,33.0,96,81,52,30.00,29.86,3,0,6,0.00
2013-12-4,52.0,43.6,34.2,46.0,38.7,33.0,94,83,61,30.14,30.00,2,0,5,0.00
2013-12-5,56.7,53.3,48.4,55.0,52.0,46.0,97,95,91,30.12,29.95,4,0,8,0.03
2013-12-6,55.2,46.6,35.7,55.0,45.5,34.0,98,96,92,30.13,29.87,6,1,13,0.70
2013-12-7,41.3,36.0,31.0,36.0,29.2,19.0,96,78,57,30.50,30.08,9,1,14,0.02
2013-12-8,32.8,30.1,26.7,30.0,22.0,17.0,94,73,57,30.59,30.37,4,1,9,0.00
2013-12-9,40.7,36.8,31.3,40.0,35.6,30.0,97,95,92,30.36,29.94,8,2,12,0.04
2013-12-10,36.0,33.2,29.4,34.0,29.7,18.0,95,87,62,30.12,29.87,4,1,12,0.02
2013-12-11,33.5,29.8,25.8,19.0,17.0,15.0,66,59,51,30.32,30.13,10,3,15,0.00
2013-12-12,28.8,25.2,22.6,17.0,9.3,6.0,66,51,40,30.35,30.16,8,2,15,0.00
2013-12-13,35.9,28.8,22.8,21.0,14.1,7.0,72,55,44,30.33,30.13,9,2,17,0.00
2013-12-14,41.2,27.4,23.3,40.0,23.3,18.0,97,85,71,30.50,29.80,13,3,15,0.00
2013-12-15,44.5,36.9,31.0,44.0,31.9,21.0,97,83,63,29.84,29.45,13,3,23,0.64
2013-12-16,33.1,28.2,20.1,23.0,13.8,9.0,75,55,41,30.24,29.83,10,2,14,0.00
2013-12-17,33.1,26.6,20.7,32.0,21.7,12.0,94,83,55,30.23,29.91,5,1,10,0.00
2013-12-18,37.5,29.8,23.2,25.0,22.1,20.0,89,74,58,30.16,29.91,6,1,14,0.00
2013-12-19,44.2,37.2,27.0,31.0,26.9,21.0,83,67,54,30.19,30.03,8,1,15,0.06
2013-12-20,51.6,43.4,34.0,44.0,35.3,30.0,93,74,51,30.11,29.97,6,1,13,0.00
2013-12-21,58.2,49.7,42.0,50.0,46.4,41.0,97,89,72,30.01,29.91,8,1,10,0.00
2013-12-22,62.5,56.8,50.8,58.0,54.1,49.0,96,91,82,29.97,29.83,10,2,18,0.00
2013-12-23,57.9,51.1,41.2,57.0,47.7,-99.9,98,93,82,30.13,29.88,9,-20,13,0.17
2013-12-24,41.1,35.7,26.5,36.0,25.3,9.0,82,67,46,30.32,30.08,12,2,19,0.00
2013-12-25,29.2,24.1,18.6,21.0,9.1,-99.9,71,55,47,30.52,30.32,9,-9,14,0.00
2013-12-26,37.6,32.1,25.9,27.0,24.3,20.0,83,73,54,30.43,30.16,6,1,11,0.00
2013-12-27,40.2,33.7,25.5,25.0,22.2,19.0,87,64,46,30.36,30.26,8,1,12,0.00
2013-12-28,54.3,42.2,27.2,31.0,28.3,23.0,89,61,40,30.29,30.07,11,2,17,0.00
2013-12-29,48.6,43.1,40.7,48.0,37.7,29.0,96,82,58,30.07,29.36,10,2,16,1.23
2013-12-30,45.4,35.7,23.0,39.0,27.7,12.0,95,74,53,30.19,29.69,8,2,14,0.00
2013-12-31,32.6,26.2,20.2,23.0,14.5,9.0,72,62,48,30.27,30.07,8,2,14,0.00